createdAt,value
2019-05-26T00:00:10.090Z,86.64
2019-05-26T00:02:41.847Z,85.06
2019-05-26T00:05:13.349Z,85.48
2019-05-26T00:07:44.889Z,85.29
2019-05-26T00:10:16.474Z,85.38
2019-05-26T00:12:48.064Z,86.13
2019-05-26T00:15:19.985Z,84.82
2019-05-26T00:17:51.966Z,85.24
2019-05-26T00:20:23.491Z,85.31
2019-05-26T00:22:54.981Z,84.43
2019-05-26T00:25:26.645Z,84.57
2019-05-26T00:27:58.134Z,83.25
2019-05-26T00:30:29.643Z,82.46
2019-05-26T00:33:01.249Z,83.37
2019-05-26T00:35:32.847Z,82.96
2019-05-26T00:38:04.652Z,83.12
2019-05-26T00:40:36.145Z,82.98
2019-05-26T00:43:07.681Z,83.29
2019-05-26T00:45:39.544Z,82.89
2019-05-26T00:48:11.080Z,84.68
2019-05-26T00:50:42.623Z,84.84
2019-05-26T00:53:14.414Z,84.31
2019-05-26T00:55:45.911Z,83.72
2019-05-26T00:58:17.423Z,82.77
2019-05-26T01:00:49.006Z,82.61
2019-05-26T01:03:20.555Z,83.10
2019-05-26T01:05:52.043Z,83.58
2019-05-26T01:08:23.588Z,83.28
2019-05-26T01:10:55.076Z,83.71
2019-05-26T01:13:26.554Z,83.93
2019-05-26T01:15:58.037Z,84.37
2019-05-26T01:18:29.768Z,84.12
2019-05-26T01:21:01.700Z,84.11
2019-05-26T01:23:33.173Z,84.46
2019-05-26T01:26:05.047Z,84.28
2019-05-26T01:28:36.608Z,83.66
2019-05-26T01:31:08.159Z,83.70
2019-05-26T01:33:39.823Z,84.75
2019-05-26T01:36:11.344Z,85.71
2019-05-26T01:38:43.329Z,86.93
2019-05-26T01:41:14.848Z,87.99
2019-05-26T01:43:46.440Z,89.09
2019-05-26T01:46:17.947Z,90.26
2019-05-26T01:48:49.746Z,91.48
2019-05-26T01:51:21.248Z,91.98
2019-05-26T01:53:54.384Z,92.71
2019-05-26T01:56:26.271Z,93.15
2019-05-26T01:58:58.021Z,93.81
2019-05-26T02:01:29.507Z,94.34
2019-05-26T02:04:01.008Z,94.68
2019-05-26T02:06:32.609Z,95.68
2019-05-26T02:09:06.266Z,95.56
2019-05-26T02:11:37.906Z,96.16
2019-05-26T02:14:09.448Z,96.86
2019-05-26T02:16:41.290Z,97.07
2019-05-26T02:19:14.720Z,97.59
2019-05-26T02:21:46.476Z,97.86
2019-05-26T02:24:17.966Z,98.79
2019-05-26T02:26:49.494Z,98.67
2019-05-26T02:29:21.243Z,99.07
2019-05-26T02:31:52.771Z,98.96
2019-05-26T02:34:24.257Z,99.38
2019-05-26T02:36:55.806Z,99.76
2019-05-26T02:39:27.544Z,99.31
2019-05-26T02:41:59.383Z,99.40
2019-05-26T02:44:31.434Z,99.50
2019-05-26T02:47:03.520Z,99.36
2019-05-26T02:49:35.008Z,99.49
2019-05-26T02:52:06.492Z,99.37
2019-05-26T02:54:37.928Z,99.92
2019-05-26T02:57:09.450Z,99.48
2019-05-26T02:59:40.849Z,100.00
2019-05-26T03:02:12.669Z,100.00
2019-05-26T03:04:44.578Z,100.00
2019-05-26T03:07:18.084Z,100.00
2019-05-26T03:09:51.563Z,100.00
2019-05-26T03:12:27.362Z,100.00
2019-05-26T03:15:01.234Z,100.00
2019-05-26T03:17:35.538Z,100.00
2019-05-26T03:20:07.678Z,100.00
2019-05-26T03:22:42.372Z,100.00
2019-05-26T03:25:14.030Z,100.00
2019-05-26T03:27:45.548Z,100.00
2019-05-26T03:30:17.126Z,100.00
2019-05-26T03:32:48.975Z,100.00
2019-05-26T03:35:20.487Z,100.00
2019-05-26T03:37:51.960Z,100.00
2019-05-26T03:40:23.413Z,100.00
2019-05-26T03:42:55.342Z,100.00
2019-05-26T03:45:46.700Z,100.00
2019-05-26T03:48:18.101Z,100.00
2019-05-26T03:50:49.610Z,100.00
2019-05-26T03:53:21.008Z,100.00
2019-05-26T03:55:52.339Z,100.00
2019-05-26T03:58:23.778Z,99.66
2019-05-26T04:00:55.883Z,99.85
2019-05-26T04:03:27.637Z,99.93
2019-05-26T04:05:59.117Z,99.61
2019-05-26T04:08:30.617Z,100.00
2019-05-26T04:11:02.028Z,99.91
2019-05-26T04:13:33.600Z,99.38
2019-05-26T04:16:05.512Z,97.81
2019-05-26T04:18:36.988Z,96.57
2019-05-26T04:21:08.552Z,96.95
2019-05-26T04:23:40.081Z,96.91
2019-05-26T04:26:11.549Z,95.89
2019-05-26T04:28:43.479Z,94.62
2019-05-26T04:31:15.065Z,94.93
2019-05-26T04:33:46.587Z,95.09
2019-05-26T04:36:18.342Z,96.42
2019-05-26T04:38:50.198Z,95.46
2019-05-26T04:41:22.083Z,95.16
2019-05-26T04:43:53.498Z,96.24
2019-05-26T04:46:24.945Z,96.41
2019-05-26T04:48:56.464Z,96.61
2019-05-26T04:51:27.988Z,95.98
2019-05-26T04:53:59.405Z,94.67
2019-05-26T04:56:30.897Z,92.72
2019-05-26T04:59:02.326Z,92.66
2019-05-26T05:01:33.848Z,93.36
2019-05-26T05:04:05.365Z,93.12
2019-05-26T05:06:37.035Z,94.41
2019-05-26T05:09:09.190Z,93.34
2019-05-26T05:11:40.635Z,93.87
2019-05-26T05:14:11.981Z,94.42
2019-05-26T05:16:43.389Z,93.83
2019-05-26T05:19:14.874Z,94.71
2019-05-26T05:21:46.525Z,95.50
2019-05-26T05:24:18.342Z,94.10
2019-05-26T05:26:50.384Z,93.75
2019-05-26T05:29:21.919Z,92.24
2019-05-26T05:31:53.361Z,91.19
2019-05-26T05:34:24.901Z,91.53
2019-05-26T05:36:57.373Z,91.56
2019-05-26T05:39:28.860Z,91.23
2019-05-26T05:42:00.641Z,91.95
2019-05-26T05:44:32.143Z,91.01
2019-05-26T05:47:04.799Z,91.84
2019-05-26T05:49:36.379Z,91.47
2019-05-26T05:52:07.862Z,89.31
2019-05-26T05:54:39.254Z,90.51
2019-05-26T05:57:11.044Z,89.95
2019-05-26T05:59:42.473Z,90.11
2019-05-26T06:02:15.091Z,89.43
2019-05-26T06:04:46.669Z,90.48
2019-05-26T06:07:18.254Z,88.16
2019-05-26T06:09:50.283Z,85.54
2019-05-26T06:12:21.806Z,85.81
2019-05-26T06:14:53.279Z,86.56
2019-05-26T06:17:24.870Z,87.33
2019-05-26T06:19:56.438Z,85.20
2019-05-26T06:22:27.911Z,81.93
2019-05-26T06:24:59.323Z,79.53
2019-05-26T06:27:30.771Z,77.89
2019-05-26T06:30:02.229Z,78.80
2019-05-26T06:32:34.257Z,78.43
2019-05-26T06:35:07.418Z,78.30
2019-05-26T06:37:38.959Z,79.66
2019-05-26T06:40:11.376Z,77.33
2019-05-26T06:42:42.853Z,78.01
2019-05-26T06:45:16.045Z,74.32
2019-05-26T06:47:48.775Z,76.04
2019-05-26T06:50:20.342Z,77.87
2019-05-26T06:52:51.863Z,75.29
2019-05-26T06:55:24.734Z,74.77
2019-05-26T06:57:56.211Z,75.62
2019-05-26T07:00:28.166Z,73.80
2019-05-26T07:02:59.689Z,70.20
2019-05-26T07:05:31.164Z,71.32
2019-05-26T07:08:02.643Z,70.67
2019-05-26T07:10:34.365Z,70.68
2019-05-26T07:13:05.942Z,69.98
2019-05-26T07:15:37.450Z,70.02
2019-05-26T07:18:09.200Z,65.89
2019-05-26T07:20:40.619Z,66.22
2019-05-26T07:23:13.181Z,68.21
2019-05-26T07:25:44.735Z,69.20
2019-05-26T07:28:16.613Z,65.65
2019-05-26T07:30:48.408Z,64.56
2019-05-26T07:33:19.897Z,65.49
2019-05-26T07:35:52.452Z,65.90
2019-05-26T07:38:23.856Z,66.31
2019-05-26T07:40:56.113Z,67.68
2019-05-26T07:43:28.345Z,67.13
2019-05-26T07:46:00.357Z,65.99
2019-05-26T07:48:35.600Z,62.27
2019-05-26T07:51:05.010Z,62.77
2019-05-26T07:53:36.508Z,59.77
2019-05-26T07:56:08.091Z,61.07
2019-05-26T07:58:39.445Z,71.33
2019-05-26T08:01:11.254Z,62.19
2019-05-26T08:03:42.563Z,59.02
2019-05-26T08:06:14.026Z,57.98
2019-05-26T08:08:45.530Z,59.90
2019-05-26T08:11:17.059Z,56.73
2019-05-26T08:13:48.950Z,56.72
2019-05-26T08:16:21.081Z,56.96
2019-05-26T08:18:52.892Z,55.99
2019-05-26T08:21:24.289Z,54.65
2019-05-26T08:23:56.142Z,56.45
2019-05-26T08:26:27.985Z,53.50
2019-05-26T08:28:59.438Z,54.63
2019-05-26T08:31:30.842Z,52.90
2019-05-26T08:34:02.336Z,54.30
2019-05-26T08:36:34.395Z,52.80
2019-05-26T08:39:08.832Z,52.43
2019-05-26T08:41:40.252Z,56.88
2019-05-26T08:44:11.710Z,53.71
2019-05-26T08:46:43.203Z,55.92
2019-05-26T08:49:16.506Z,49.61
2019-05-26T08:51:47.997Z,50.29
2019-05-26T08:54:19.836Z,50.38
2019-05-26T08:56:51.323Z,51.18
2019-05-26T08:59:23.124Z,48.19
2019-05-26T09:01:55.018Z,49.08
2019-05-26T09:04:26.555Z,58.89
2019-05-26T09:06:58.358Z,47.02
2019-05-26T09:09:29.735Z,48.52
2019-05-26T09:12:01.128Z,55.35
2019-05-26T09:14:32.491Z,47.07
2019-05-26T09:17:04.367Z,47.78
2019-05-26T09:19:35.760Z,47.90
2019-05-26T09:22:07.421Z,45.66
2019-05-26T09:24:39.173Z,46.94
2019-05-26T09:27:10.664Z,44.97
2019-05-26T09:29:42.195Z,44.78
2019-05-26T09:32:13.712Z,42.01
2019-05-26T09:34:45.188Z,41.08
2019-05-26T09:37:17.082Z,43.09
2019-05-26T09:39:48.779Z,41.40
2019-05-26T09:42:22.513Z,43.00
2019-05-26T09:44:54.383Z,39.28
2019-05-26T09:47:26.206Z,35.00
2019-05-26T09:49:57.687Z,38.19
2019-05-26T09:52:29.183Z,40.04
2019-05-26T09:55:00.672Z,33.72
2019-05-26T09:57:32.130Z,34.37
2019-05-26T10:00:03.635Z,39.99
2019-05-26T10:02:35.711Z,36.26
2019-05-26T10:05:07.687Z,42.69
2019-05-26T10:07:39.078Z,36.44
2019-05-26T10:10:11.409Z,35.36
2019-05-26T10:12:43.188Z,37.72
2019-05-26T10:15:15.352Z,32.91
2019-05-26T10:17:46.773Z,36.14
2019-05-26T10:20:18.482Z,36.70
2019-05-26T10:22:50.008Z,33.14
2019-05-26T10:25:21.547Z,32.02
2019-05-26T10:27:53.011Z,35.23
2019-05-26T10:30:24.666Z,32.16
2019-05-26T10:32:56.579Z,32.10
2019-05-26T10:35:28.301Z,35.21
2019-05-26T10:37:59.768Z,34.91
2019-05-26T10:40:31.266Z,32.53
2019-05-26T10:43:02.668Z,33.96
2019-05-26T10:45:34.558Z,34.32
2019-05-26T10:48:06.099Z,36.84
2019-05-26T10:50:37.578Z,31.18
2019-05-26T10:53:09.273Z,30.12
2019-05-26T10:55:41.021Z,30.89
2019-05-26T10:58:12.592Z,33.53
2019-05-26T11:00:44.556Z,32.32
2019-05-26T11:03:16.067Z,32.69
2019-05-26T11:05:47.709Z,37.01
2019-05-26T11:08:19.405Z,31.15
2019-05-26T11:10:50.991Z,34.67
2019-05-26T11:13:22.533Z,30.34
2019-05-26T11:15:53.942Z,32.36
2019-05-26T11:18:26.503Z,31.25
2019-05-26T11:20:58.091Z,34.09
2019-05-26T11:23:29.621Z,32.39
2019-05-26T11:26:01.014Z,33.02
2019-05-26T11:28:32.509Z,34.66
2019-05-26T11:31:04.004Z,33.96
2019-05-26T11:33:35.489Z,33.03
2019-05-26T11:36:07.227Z,30.67
2019-05-26T11:38:39.775Z,31.58
2019-05-26T11:41:11.256Z,31.06
2019-05-26T11:43:42.800Z,35.78
2019-05-26T11:46:16.675Z,28.85
2019-05-26T11:48:47.723Z,30.77
2019-05-26T11:51:19.222Z,27.95
2019-05-26T11:53:50.840Z,27.60
2019-05-26T11:56:22.386Z,31.15
2019-05-26T11:58:54.037Z,26.71
2019-05-26T12:01:25.431Z,29.19
2019-05-26T12:03:57.052Z,33.02
2019-05-26T12:06:28.446Z,34.05
2019-05-26T12:09:00.051Z,34.98
2019-05-26T12:11:31.804Z,32.17
2019-05-26T12:14:03.291Z,31.96
2019-05-26T12:16:35.086Z,28.25
2019-05-26T12:19:06.760Z,30.06
2019-05-26T12:21:38.447Z,34.17
2019-05-26T12:24:09.987Z,37.23
2019-05-26T12:26:41.482Z,39.45
2019-05-26T12:29:12.969Z,34.28
2019-05-26T12:31:44.370Z,34.98
2019-05-26T12:34:15.853Z,35.04
2019-05-26T12:36:47.521Z,39.37
2019-05-26T12:39:19.297Z,36.88
2019-05-26T12:41:51.384Z,31.96
2019-05-26T12:44:22.811Z,30.55
2019-05-26T12:46:55.369Z,33.70
2019-05-26T12:49:28.133Z,34.64
2019-05-26T12:51:59.581Z,33.85
2019-05-26T12:54:31.476Z,33.28
2019-05-26T12:57:02.949Z,32.23
2019-05-26T12:59:34.830Z,32.86
2019-05-26T13:02:06.743Z,33.85
2019-05-26T13:04:38.136Z,33.55
2019-05-26T13:07:09.601Z,31.24
2019-05-26T13:09:40.997Z,31.88
2019-05-26T13:12:13.624Z,36.16
2019-05-26T13:14:45.116Z,28.97
2019-05-26T13:17:16.594Z,28.98
2019-05-26T13:19:48.076Z,31.06
2019-05-26T13:22:20.866Z,29.23
2019-05-26T13:24:52.367Z,29.65
2019-05-26T13:27:23.908Z,27.69
2019-05-26T13:29:55.432Z,29.14
2019-05-26T13:32:26.905Z,28.80
2019-05-26T13:34:58.424Z,29.42
2019-05-26T13:37:30.201Z,31.45
2019-05-26T13:40:01.713Z,30.02
2019-05-26T13:42:33.149Z,28.68
2019-05-26T13:45:20.784Z,27.88
2019-05-26T13:47:38.511Z,28.50
2019-05-26T13:50:11.389Z,32.12
2019-05-26T13:52:42.854Z,29.14
2019-05-26T13:55:16.108Z,29.12
2019-05-26T13:57:49.580Z,29.46
2019-05-26T14:00:22.786Z,31.75
2019-05-26T14:02:54.524Z,31.50
2019-05-26T14:05:26.036Z,31.33
2019-05-26T14:07:57.521Z,31.21
2019-05-26T14:10:35.001Z,32.28
2019-05-26T14:13:07.910Z,31.55
2019-05-26T14:15:39.709Z,33.00
2019-05-26T14:18:11.395Z,30.43
2019-05-26T14:20:43.401Z,29.91
2019-05-26T14:23:14.798Z,29.63
2019-05-26T14:25:46.516Z,31.56
2019-05-26T14:28:18.096Z,31.65
2019-05-26T14:30:49.783Z,29.35
2019-05-26T14:33:21.253Z,27.71
2019-05-26T14:35:52.685Z,30.75
2019-05-26T14:38:24.207Z,29.03
2019-05-26T14:40:55.621Z,29.25
2019-05-26T14:43:27.241Z,30.19
2019-05-26T14:45:59.025Z,31.41
2019-05-26T14:48:30.608Z,31.00
2019-05-26T14:51:02.577Z,31.03
2019-05-26T14:53:34.035Z,31.59
2019-05-26T14:56:05.536Z,32.44
2019-05-26T14:58:36.930Z,31.68
2019-05-26T15:01:08.399Z,31.59
2019-05-26T15:03:39.865Z,32.07
2019-05-26T15:06:11.196Z,31.25
2019-05-26T15:08:42.674Z,33.09
2019-05-26T15:11:14.802Z,31.64
2019-05-26T15:13:46.182Z,31.43
2019-05-26T15:16:17.659Z,31.64
2019-05-26T15:18:49.042Z,31.19
2019-05-26T15:21:20.538Z,29.84
2019-05-26T15:23:52.677Z,30.63
2019-05-26T15:26:24.076Z,30.86
2019-05-26T15:28:55.509Z,30.45
2019-05-26T15:31:27.062Z,30.67
2019-05-26T15:33:58.545Z,30.73
2019-05-26T15:36:30.432Z,32.09
2019-05-26T15:39:02.306Z,31.82
2019-05-26T15:41:35.141Z,32.09
2019-05-26T15:44:06.749Z,31.50
2019-05-26T15:46:38.540Z,32.67
2019-05-26T15:49:10.061Z,31.83
2019-05-26T15:51:41.477Z,31.42
2019-05-26T15:54:13.052Z,31.70
2019-05-26T15:56:44.421Z,32.50
2019-05-26T15:59:15.836Z,32.19
2019-05-26T16:01:49.150Z,32.67
2019-05-26T16:04:20.642Z,32.83
2019-05-26T16:06:52.225Z,34.23
2019-05-26T16:09:25.039Z,33.21
2019-05-26T16:11:56.662Z,32.24
2019-05-26T16:14:28.357Z,32.05
2019-05-26T16:16:59.858Z,33.55
2019-05-26T16:19:31.243Z,32.18
2019-05-26T16:22:02.776Z,33.29
2019-05-26T16:24:34.192Z,35.59
2019-05-26T16:27:18.599Z,35.40
2019-05-26T16:29:38.760Z,34.93
2019-05-26T16:32:10.303Z,33.92
2019-05-26T16:34:42.012Z,34.19
2019-05-26T16:37:13.599Z,34.83
2019-05-26T16:39:44.930Z,34.87
2019-05-26T16:42:16.635Z,36.15
2019-05-26T16:44:48.490Z,35.66
2019-05-26T16:47:20.318Z,35.42
2019-05-26T16:49:51.651Z,36.70
2019-05-26T16:52:23.163Z,35.49
2019-05-26T16:54:54.723Z,37.20
2019-05-26T16:57:26.194Z,36.98
2019-05-26T16:59:57.693Z,36.46
2019-05-26T17:02:29.136Z,36.89
2019-05-26T17:05:01.769Z,36.17
2019-05-26T17:07:34.208Z,37.05
2019-05-26T17:10:06.903Z,37.64
2019-05-26T17:12:38.482Z,38.10
2019-05-26T17:15:10.032Z,37.15
2019-05-26T17:17:41.507Z,38.71
2019-05-26T17:20:13.284Z,37.42
2019-05-26T17:22:44.816Z,37.38
2019-05-26T17:25:18.262Z,38.97
2019-05-26T17:27:49.778Z,39.60
2019-05-26T17:30:22.342Z,40.16
2019-05-26T17:32:54.019Z,40.11
2019-05-26T17:37:57.926Z,40.88
2019-05-26T17:40:29.652Z,40.08
2019-05-26T17:43:01.470Z,40.58
2019-05-26T17:45:32.901Z,41.57
2019-05-26T17:48:04.479Z,42.32
2019-05-26T17:50:36.010Z,41.47
2019-05-26T17:53:07.486Z,42.46
2019-05-26T17:55:39.029Z,42.43
2019-05-26T17:58:10.560Z,42.90
2019-05-26T18:00:42.361Z,44.03
2019-05-26T18:03:13.773Z,43.50
2019-05-26T18:05:45.437Z,44.03
2019-05-26T18:08:17.385Z,44.87
2019-05-26T18:10:48.932Z,45.41
2019-05-26T18:13:21.020Z,44.80
2019-05-26T18:15:52.596Z,45.69
2019-05-26T18:18:24.579Z,44.77
2019-05-26T18:20:56.056Z,45.30
2019-05-26T18:23:27.457Z,45.78
2019-05-26T18:25:58.989Z,46.01
2019-05-26T18:28:30.464Z,47.02
2019-05-26T18:31:02.007Z,48.58
2019-05-26T18:33:33.524Z,52.07
2019-05-26T18:36:04.991Z,53.15
2019-05-26T18:38:36.408Z,55.19
2019-05-26T18:41:08.921Z,57.59
2019-05-26T18:43:40.335Z,57.70
2019-05-26T18:46:12.179Z,59.92
2019-05-26T18:48:43.653Z,62.48
2019-05-26T18:51:15.140Z,64.49
2019-05-26T18:53:48.058Z,66.95
2019-05-26T18:56:19.516Z,67.80
2019-05-26T18:58:50.946Z,67.97
2019-05-26T19:01:22.414Z,68.25
2019-05-26T19:03:53.756Z,68.32
2019-05-26T19:06:25.266Z,68.71
2019-05-26T19:08:57.089Z,68.54
2019-05-26T19:11:28.958Z,69.03
2019-05-26T19:14:00.604Z,69.02
2019-05-26T19:16:32.341Z,69.76
2019-05-26T19:19:05.184Z,70.45
2019-05-26T19:21:36.747Z,69.98
2019-05-26T19:24:08.306Z,70.77
2019-05-26T19:26:39.783Z,71.77
2019-05-26T19:29:11.287Z,71.80
2019-05-26T19:31:43.831Z,72.94
2019-05-26T19:34:15.302Z,73.19
2019-05-26T19:36:46.684Z,73.92
2019-05-26T19:39:18.241Z,73.15
2019-05-26T19:41:49.671Z,73.38
2019-05-26T19:44:21.145Z,73.12
2019-05-26T19:46:53.841Z,72.75
2019-05-26T19:49:25.426Z,73.18
2019-05-26T19:51:57.245Z,75.00
2019-05-26T19:54:28.729Z,75.06
2019-05-26T19:57:00.160Z,74.25
2019-05-26T19:59:31.665Z,75.44
2019-05-26T20:02:17.384Z,75.44
2019-05-26T20:04:36.593Z,76.61
2019-05-26T20:07:08.095Z,75.75
2019-05-26T20:09:39.798Z,76.33
2019-05-26T20:12:11.671Z,77.34
2019-05-26T20:14:43.139Z,77.10
2019-05-26T20:17:15.012Z,77.00
2019-05-26T20:19:46.519Z,77.44
2019-05-26T20:22:18.006Z,77.19
2019-05-26T20:24:49.333Z,77.83
2019-05-26T20:27:21.357Z,78.00
2019-05-26T20:29:53.080Z,77.25
2019-05-26T20:32:24.557Z,77.42
2019-05-26T20:34:56.031Z,77.24
2019-05-26T20:37:27.584Z,76.83
2019-05-26T20:39:59.213Z,77.49
2019-05-26T20:42:30.880Z,77.98
2019-05-26T20:45:02.605Z,78.49
2019-05-26T20:47:35.063Z,78.17
2019-05-26T20:50:07.048Z,77.09
2019-05-26T20:52:38.981Z,77.99
2019-05-26T20:55:11.042Z,79.07
2019-05-26T20:57:42.709Z,79.56
2019-05-26T21:00:15.910Z,81.18
2019-05-26T21:02:47.712Z,81.92
2019-05-26T21:05:20.360Z,81.63
2019-05-26T21:07:51.801Z,80.98
2019-05-26T21:10:23.522Z,81.36
2019-05-26T21:12:54.924Z,81.77
2019-05-26T21:15:26.459Z,82.50
2019-05-26T21:17:58.301Z,79.96
2019-05-26T21:20:29.759Z,80.10
2019-05-26T21:23:01.576Z,79.40
2019-05-26T21:25:33.160Z,79.35
2019-05-26T21:28:04.635Z,79.95
2019-05-26T21:30:36.414Z,79.00
2019-05-26T21:33:07.893Z,75.31
2019-05-26T21:35:39.298Z,73.89
2019-05-26T21:38:10.719Z,72.80
2019-05-26T21:40:42.228Z,72.65
2019-05-26T21:43:13.644Z,75.17
2019-05-26T21:45:44.972Z,72.02
2019-05-26T21:48:16.377Z,71.51
2019-05-26T21:50:48.051Z,72.56
2019-05-26T21:53:19.637Z,73.22
2019-05-26T21:55:50.978Z,73.85
2019-05-26T22:00:55.054Z,77.42
2019-05-26T22:03:26.672Z,78.14
2019-05-26T22:05:58.210Z,78.53
2019-05-26T22:08:29.636Z,79.35
2019-05-26T22:11:01.317Z,77.26
2019-05-26T22:13:33.967Z,77.20
2019-05-26T22:16:05.760Z,77.37
2019-05-26T22:18:37.907Z,78.08
2019-05-26T22:21:09.484Z,77.67
2019-05-26T22:23:40.901Z,76.03
2019-05-26T22:26:12.442Z,74.33
2019-05-26T22:28:43.946Z,75.23
2019-05-26T22:31:15.360Z,74.95
2019-05-26T22:33:47.585Z,75.15
2019-05-26T22:36:19.037Z,75.12
2019-05-26T22:38:50.791Z,75.44
2019-05-26T22:41:22.564Z,74.31
2019-05-26T22:43:54.029Z,75.26
2019-05-26T22:46:25.427Z,76.42
2019-05-26T22:48:57.200Z,77.50
2019-05-26T22:51:28.685Z,78.36
2019-05-26T22:54:00.485Z,77.84
2019-05-26T22:56:32.138Z,75.86
2019-05-26T22:59:03.877Z,76.64
2019-05-26T23:01:35.367Z,74.72
2019-05-26T23:04:07.197Z,73.42
2019-05-26T23:06:38.666Z,72.15
2019-05-26T23:09:10.439Z,71.81
2019-05-26T23:11:42.069Z,71.83
2019-05-26T23:14:13.678Z,71.47
2019-05-26T23:16:45.058Z,71.35
2019-05-26T23:19:19.838Z,71.52
2019-05-26T23:21:50.377Z,73.22
2019-05-26T23:24:21.944Z,72.22
2019-05-26T23:26:53.465Z,71.88
2019-05-26T23:29:24.855Z,71.48
2019-05-26T23:31:56.418Z,71.77
2019-05-26T23:34:28.168Z,71.24
2019-05-26T23:37:00.111Z,71.86
2019-05-26T23:39:31.898Z,72.10
2019-05-26T23:42:03.344Z,71.45
2019-05-26T23:44:34.861Z,71.67
2019-05-26T23:47:07.317Z,72.93
2019-05-26T23:49:38.840Z,72.37
2019-05-26T23:52:10.826Z,74.10
2019-05-26T23:54:42.395Z,71.66
2019-05-26T23:57:13.859Z,73.47
2019-05-26T23:59:45.211Z,71.13
